Time,TemperatureF,DewpointF,PressureIn,WindDirection,WindDirectionDegrees,WindSpeedMPH,WindSpeedGustMPH,Humidity,HourlyPrecipIn,Conditions,Clouds,dailyrainin,SolarRadiationWatts/m^2,SoftwareType,DateUTC
2013-04-23 00:01:00,44.8,42.3,29.99,ENE,77,0.0,0.0,91,0.00,-RA,OVC,0.00,0.0,WeatherDisplay:10.37,2013-04-23 05:01:00,
2013-04-23 00:06:00,44.8,42.3,29.99,ENE,77,0.0,0.0,91,0.00,-RA,OVC,0.00,0.0,WeatherDisplay:10.37,2013-04-23 05:06:00,
2013-04-23 00:11:00,44.8,42.6,29.99,ENE,77,0.0,0.0,92,0.00,-RA,OVC,0.00,0.0,WeatherDisplay:10.37,2013-04-23 05:11:00,
2013-04-23 00:16:00,44.6,42.7,29.99,ENE,77,0.0,0.0,93,0.00,-RA,OVC,0.00,0.0,WeatherDisplay:10.37,2013-04-23 05:16:00,
2013-04-23 00:21:00,44.4,42.8,29.99,South,175,0.0,0.0,94,0.00,-RA,OVC,0.00,0.0,WeatherDisplay:10.37,2013-04-23 05:21:00,
2013-04-23 00:26:00,44.6,43.0,29.99,SE,136,0.0,0.0,94,0.00,-RA,OVC,0.00,0.0,WeatherDisplay:10.37,2013-04-23 05:26:00,
2013-04-23 00:31:00,44.6,43.3,29.99,SE,136,0.0,0.0,95,0.00,-RA,OVC,0.00,0.0,WeatherDisplay:10.37,2013-04-23 05:31:00,
2013-04-23 00:36:00,44.6,43.3,29.99,SE,136,0.0,0.0,95,0.00,-RA,OVC,0.00,0.0,WeatherDisplay:10.37,2013-04-23 05:36:00,
2013-04-23 00:41:00,44.6,43.5,29.96,SE,136,0.0,0.0,96,0.00,-RA,OVC,0.00,0.0,WeatherDisplay:10.37,2013-04-23 05:41:00,
2013-04-23 00:46:00,44.6,43.5,29.96,SE,136,0.0,0.0,96,0.00,-RA,OVC,0.00,0.0,WeatherDisplay:10.37,2013-04-23 05:46:00,
2013-04-23 00:51:00,44.4,43.4,29.96,SE,136,0.0,0.0,96,0.00,-RA,OVC,0.00,0.0,WeatherDisplay:10.37,2013-04-23 05:51:00,
2013-04-23 00:56:00,44.4,43.4,29.96,SE,136,0.0,0.0,96,0.00,-RA,OVC,0.00,0.0,WeatherDisplay:10.37,2013-04-23 05:56:00,
2013-04-23 01:01:00,44.4,43.4,29.96,South,173,0.0,0.0,96,0.00,-RA,OVC,0.00,0.0,WeatherDisplay:10.37,2013-04-23 06:01:00,
2013-04-23 01:06:00,44.4,43.6,29.96,South,173,0.0,0.0,97,0.00,-RA,OVC,0.00,0.0,WeatherDisplay:10.37,2013-04-23 06:06:00,
2013-04-23 01:11:00,45.1,44.3,29.96,West,264,4.6,4.6,97,0.00,-RA,OVC,0.00,0.0,WeatherDisplay:10.37,2013-04-23 06:11:00,
2013-04-23 01:16:00,46.6,44.9,29.96,WSW,241,5.8,5.8,94,0.00,-RA,OVC,0.00,0.0,WeatherDisplay:10.37,2013-04-23 06:16:00,
2013-04-23 01:21:00,47.1,44.9,29.96,SW,235,3.5,3.5,92,0.00,-RA,OVC,0.00,0.0,WeatherDisplay:10.37,2013-04-23 06:21:00,
2013-04-23 01:26:00,47.3,44.5,29.96,SSW,193,3.5,0.0,90,0.00,-RA,OVC,0.00,0.0,WeatherDisplay:10.37,2013-04-23 06:26:00,
2013-04-23 01:31:00,47.1,44.0,29.96,SSW,192,0.0,0.0,89,0.00,-RA,OVC,0.00,0.0,WeatherDisplay:10.37,2013-04-23 06:31:00,
2013-04-23 01:36:00,47.1,43.7,29.96,SSW,192,0.0,0.0,88,0.00,-RA,OVC,0.00,0.0,WeatherDisplay:10.37,2013-04-23 06:36:00,
2013-04-23 01:41:00,46.8,43.1,29.96,SSW,192,0.0,0.0,87,0.00,-RA,OVC,0.00,0.0,WeatherDisplay:10.37,2013-04-23 06:41:00,
2013-04-23 01:46:00,46.6,43.2,29.96,SSW,193,0.0,0.0,88,0.00,-RA,OVC,0.00,0.0,WeatherDisplay:10.37,2013-04-23 06:46:00,
2013-04-23 01:51:00,46.2,43.2,29.96,SSW,193,0.0,0.0,89,0.00,-RA,OVC,0.00,0.0,WeatherDisplay:10.37,2013-04-23 06:51:00,
2013-04-23 01:56:00,45.9,42.8,29.96,SSW,192,0.0,0.0,89,0.00,-RA,OVC,0.00,0.0,WeatherDisplay:10.37,2013-04-23 06:56:00,
2013-04-23 02:01:00,45.5,42.7,29.96,SSW,193,0.0,0.0,90,0.00,-RA,OVC,0.00,0.0,WeatherDisplay:10.37,2013-04-23 07:01:00,
2013-04-23 02:06:00,45.3,42.8,29.96,SSW,192,0.0,0.0,91,0.00,-RA,OVC,0.00,0.0,WeatherDisplay:10.37,2013-04-23 07:06:00,
2013-04-23 02:11:00,45.0,42.8,29.93,SSW,193,0.0,0.0,92,0.00,-RA,OVC,0.00,0.0,WeatherDisplay:10.37,2013-04-23 07:11:00,
2013-04-23 02:16:00,44.8,42.6,29.93,SSW,192,0.0,0.0,92,0.00,-RA,OVC,0.00,0.0,WeatherDisplay:10.37,2013-04-23 07:16:00,
2013-04-23 02:21:00,44.6,42.7,29.93,SSW,193,0.0,0.0,93,0.00,-RA,OVC,0.00,0.0,WeatherDisplay:10.37,2013-04-23 07:21:00,
2013-04-23 02:26:00,44.2,42.6,29.93,SSW,192,0.0,0.0,94,0.00,-RA,OVC,0.00,0.0,WeatherDisplay:10.37,2013-04-23 07:26:00,
2013-04-23 02:31:00,44.2,42.9,29.93,SSW,192,0.0,0.0,95,0.00,-RA,OVC,0.00,0.0,WeatherDisplay:10.37,2013-04-23 07:31:00,
2013-04-23 02:36:00,44.2,43.2,29.93,SSW,192,0.0,0.0,96,0.00,-RA,OVC,0.00,0.0,WeatherDisplay:10.37,2013-04-23 07:36:00,
2013-04-23 02:41:00,44.2,43.4,29.93,SSW,193,0.0,0.0,97,0.00,-RA,OVC,0.00,0.0,WeatherDisplay:10.37,2013-04-23 07:41:00,
2013-04-23 02:46:00,44.2,43.7,29.93,SSW,192,0.0,0.0,98,0.00,-RA,OVC,0.00,0.0,WeatherDisplay:10.37,2013-04-23 07:46:00,
2013-04-23 02:51:00,44.4,43.9,29.93,SSW,192,0.0,0.0,98,0.00,-RA,OVC,0.00,0.0,WeatherDisplay:10.37,2013-04-23 07:51:00,
2013-04-23 02:56:00,44.6,44.3,29.93,South,188,3.5,0.0,99,0.00,-RA,OVC,0.00,0.0,WeatherDisplay:10.37,2013-04-23 07:56:00,
2013-04-23 03:01:00,44.8,44.5,29.93,South,188,0.0,0.0,99,0.00,-RA,OVC,0.00,0.0,WeatherDisplay:10.37,2013-04-23 08:01:00,
2013-04-23 03:06:00,45.0,45.0,29.93,South,188,0.0,0.0,100,0.00,-RA,OVC,0.00,0.0,WeatherDisplay:10.37,2013-04-23 08:06:00,
2013-04-23 03:11:00,45.1,45.1,29.93,South,188,0.0,0.0,100,0.00,-RA,OVC,0.00,0.0,WeatherDisplay:10.37,2013-04-23 08:11:00,
2013-04-23 03:16:00,45.1,45.1,29.93,South,188,0.0,0.0,100,0.00,-RA,OVC,0.00,0.0,WeatherDisplay:10.37,2013-04-23 08:16:00,
2013-04-23 03:21:00,45.3,45.3,29.93,South,189,3.5,0.0,100,0.00,-RA,OVC,0.00,0.0,WeatherDisplay:10.37,2013-04-23 08:21:00,
2013-04-23 03:26:00,45.3,45.3,29.90,South,189,2.3,0.0,100,0.00,-RA,OVC,0.00,0.0,WeatherDisplay:10.37,2013-04-23 08:26:00,
2013-04-23 03:31:00,45.5,45.5,29.90,SSW,202,3.5,3.5,100,0.00,-RA,OVC,0.00,0.0,WeatherDisplay:10.37,2013-04-23 08:31:00,
2013-04-23 03:36:00,45.9,45.9,29.90,South,191,5.8,0.0,100,0.00,-RA,OVC,0.00,0.0,WeatherDisplay:10.37,2013-04-23 08:36:00,
2013-04-23 03:41:00,46.0,46.0,29.90,South,183,3.5,3.5,100,0.00,-RA,OVC,0.00,0.0,WeatherDisplay:10.37,2013-04-23 08:41:00,
2013-04-23 03:46:00,46.2,46.2,29.90,SSW,193,3.5,3.5,100,0.00,-RA,OVC,0.00,0.0,WeatherDisplay:10.37,2013-04-23 08:46:00,
2013-04-23 03:51:00,46.2,46.2,29.90,SSE,151,5.8,5.8,100,0.00,-RA,OVC,0.00,0.0,WeatherDisplay:10.37,2013-04-23 08:51:00,
2013-04-23 03:56:00,46.4,46.4,29.90,SSW,194,4.6,4.6,100,0.00,-RA,OVC,0.00,0.0,WeatherDisplay:10.37,2013-04-23 08:56:00,
2013-04-23 04:01:00,46.4,46.4,29.90,South,169,3.5,0.0,100,0.00,-RA,OVC,0.00,0.0,WeatherDisplay:10.37,2013-04-23 09:01:00,
2013-04-23 04:06:00,46.6,46.6,29.90,South,191,5.8,5.8,100,0.00,OVC,,0.00,0.0,WeatherDisplay:10.37,2013-04-23 09:06:00,
2013-04-23 04:11:00,46.4,46.4,29.90,South,188,4.0,4.0,100,0.00,OVC,,0.04,0.0,WeatherDisplay:10.37,2013-04-23 09:11:00,
2013-04-23 04:16:00,46.4,46.4,29.90,SSW,197,3.5,3.5,100,0.04,-RA,OVC,0.04,0.0,WeatherDisplay:10.37,2013-04-23 09:16:00,
2013-04-23 04:21:00,46.6,46.6,29.90,SW,218,5.8,5.8,100,0.04,-RA,OVC,0.04,0.0,WeatherDisplay:10.37,2013-04-23 09:21:00,
2013-04-23 04:26:00,46.6,46.6,29.90,SSW,193,4.6,4.6,100,0.04,-RA,OVC,0.04,0.0,WeatherDisplay:10.37,2013-04-23 09:26:00,
2013-04-23 04:31:00,46.6,46.6,29.90,South,170,3.5,0.0,100,0.04,-RA,OVC,0.04,0.0,WeatherDisplay:10.37,2013-04-23 09:31:00,
2013-04-23 04:36:00,46.6,46.6,29.90,South,170,5.8,5.8,100,0.04,-RA,OVC,0.04,0.0,WeatherDisplay:10.37,2013-04-23 09:36:00,
2013-04-23 04:41:00,46.6,46.6,29.90,WSW,247,11.5,11.5,100,0.04,-RA,OVC,0.04,0.0,WeatherDisplay:10.37,2013-04-23 09:41:00,
2013-04-23 04:46:00,45.5,45.5,29.90,West,263,8.1,8.1,100,0.04,-RA,OVC,0.04,0.0,WeatherDisplay:10.37,2013-04-23 09:46:00,
2013-04-23 04:51:00,43.3,42.8,29.90,WSW,249,3.5,3.6,98,0.04,-RA,OVC,0.04,0.0,WeatherDisplay:10.37,2013-04-23 09:51:00,
2013-04-23 04:56:00,41.9,41.6,29.90,WNW,293,5.8,5.8,99,0.04,-RA,OVC,0.04,0.0,WeatherDisplay:10.37,2013-04-23 09:56:00,
2013-04-23 05:01:00,41.2,41.2,29.90,WSW,249,3.5,3.6,100,0.04,-RA,OVC,0.04,0.0,WeatherDisplay:10.37,2013-04-23 10:01:00,
2013-04-23 05:06:00,40.6,40.6,29.90,SSW,200,4.6,4.6,100,0.04,-RA,OVC,0.04,0.0,WeatherDisplay:10.37,2013-04-23 10:06:00,
2013-04-23 05:11:00,40.5,40.5,29.90,West,264,0.0,0.0,100,0.04,-RA,OVC,0.04,0.0,WeatherDisplay:10.37,2013-04-23 10:11:00,
2013-04-23 05:16:00,40.1,40.1,29.90,WSW,239,2.3,0.0,100,0.00,OVC,,0.04,0.0,WeatherDisplay:10.37,2013-04-23 10:16:00,
2013-04-23 05:21:00,39.9,39.9,29.90,WSW,245,8.1,8.1,100,0.00,OVC,,0.04,0.0,WeatherDisplay:10.37,2013-04-23 10:21:00,
2013-04-23 05:25:00,39.6,39.6,29.90,SW,226,8.1,8.1,100,0.00,OVC,,0.04,0.0,WeatherDisplay:10.37,2013-04-23 10:25:00,
2013-04-23 05:30:00,39.4,39.4,29.90,SW,217,2.3,2.3,100,0.00,OVC,,0.04,0.0,WeatherDisplay:10.37,2013-04-23 10:30:00,
2013-04-23 05:35:00,39.4,39.4,29.90,SW,229,4.6,4.6,100,0.00,OVC,,0.04,0.0,WeatherDisplay:10.37,2013-04-23 10:35:00,
2013-04-23 05:40:00,39.2,39.2,29.90,WSW,239,3.5,3.5,100,0.00,OVC,,0.04,0.0,WeatherDisplay:10.37,2013-04-23 10:40:00,
2013-04-23 05:45:00,39.0,39.0,29.90,SW,224,3.5,3.6,100,0.00,OVC,,0.04,0.0,WeatherDisplay:10.37,2013-04-23 10:45:00,
2013-04-23 05:50:00,38.8,38.8,29.90,SW,215,5.8,5.8,100,0.00,OVC,,0.04,0.0,WeatherDisplay:10.37,2013-04-23 10:50:00,
2013-04-23 05:55:00,38.7,38.7,29.90,WSW,255,5.8,5.8,100,0.00,OVC,,0.04,0.0,WeatherDisplay:10.37,2013-04-23 10:55:00,
2013-04-23 06:00:00,38.5,38.5,29.93,SW,227,4.6,4.6,100,0.00,OVC,,0.04,0.0,WeatherDisplay:10.37,2013-04-23 11:00:00,
2013-04-23 06:05:00,37.9,37.9,29.93,WSW,246,8.1,8.1,100,0.00,OVC,,0.04,0.0,WeatherDisplay:10.37,2013-04-23 11:05:00,
2013-04-23 06:10:00,37.6,37.6,29.93,South,190,8.1,8.1,100,0.00,OVC,,0.04,0.0,WeatherDisplay:10.37,2013-04-23 11:10:00,
2013-04-23 06:15:00,37.2,37.2,29.93,West,277,8.1,8.1,100,0.00,OVC,,0.04,0.0,WeatherDisplay:10.37,2013-04-23 11:15:00,
2013-04-23 06:20:00,36.9,36.9,29.93,West,268,6.9,6.9,100,0.00,OVC,,0.04,0.0,WeatherDisplay:10.37,2013-04-23 11:20:00,
2013-04-23 06:25:00,36.7,36.7,29.96,NW,312,3.5,3.5,100,0.00,OVC,,0.04,0.0,WeatherDisplay:10.37,2013-04-23 11:25:00,
2013-04-23 06:30:00,36.5,36.5,29.96,West,261,3.5,3.5,100,0.00,OVC,,0.04,0.0,WeatherDisplay:10.37,2013-04-23 11:30:00,
2013-04-23 06:35:00,36.1,36.1,29.96,NNW,338,5.8,5.8,100,0.00,OVC,,0.04,0.0,WeatherDisplay:10.37,2013-04-23 11:35:00,
2013-04-23 06:40:00,36.0,36.0,29.96,WNW,283,3.5,3.5,100,0.00,OVC,,0.04,0.0,WeatherDisplay:10.37,2013-04-23 11:40:00,
2013-04-23 06:45:00,35.8,35.8,29.96,NW,312,4.6,4.6,100,0.00,OVC,,0.04,0.0,WeatherDisplay:10.37,2013-04-23 11:45:00,
2013-04-23 06:50:00,35.4,35.4,29.96,North,353,3.5,3.5,100,0.00,OVC,,0.04,0.0,WeatherDisplay:10.37,2013-04-23 11:50:00,
2013-04-23 06:55:00,35.4,35.4,29.96,West,262,8.1,8.1,100,0.00,OVC,,0.04,0.0,WeatherDisplay:10.37,2013-04-23 11:55:00,
2013-04-23 07:00:00,35.2,35.2,29.96,West,280,8.1,8.1,100,0.00,OVC,,0.04,0.0,WeatherDisplay:10.37,2013-04-23 12:00:00,
2013-04-23 07:05:00,35.1,35.1,29.96,WSW,244,3.5,3.5,100,0.00,OVC,,0.04,0.0,WeatherDisplay:10.37,2013-04-23 12:05:00,
2013-04-23 07:10:00,34.9,34.9,29.96,WSW,245,2.3,0.0,100,0.00,OVC,,0.04,0.0,WeatherDisplay:10.37,2013-04-23 12:10:00,
2013-04-23 07:15:00,34.9,34.9,29.96,West,278,3.5,3.5,100,0.00,OVC,,0.04,0.0,WeatherDisplay:10.37,2013-04-23 12:15:00,
2013-04-23 07:20:00,34.7,34.7,29.96,West,274,5.8,5.8,100,0.00,OVC,,0.04,0.0,WeatherDisplay:10.37,2013-04-23 12:20:00,
2013-04-23 07:25:00,34.7,34.7,29.96,SSW,209,3.5,3.5,100,0.00,OVC,,0.04,0.0,WeatherDisplay:10.37,2013-04-23 12:25:00,
2013-04-23 07:30:00,34.5,34.5,29.96,WNW,299,3.5,3.5,100,0.00,OVC,,0.04,0.0,WeatherDisplay:10.37,2013-04-23 12:30:00,
2013-04-23 07:35:00,34.5,34.5,29.96,West,271,4.0,4.0,100,0.00,OVC,,0.04,0.0,WeatherDisplay:10.37,2013-04-23 12:35:00,
2013-04-23 07:40:00,34.7,34.7,29.96,WNW,295,3.5,3.5,100,0.00,OVC,,0.04,0.0,WeatherDisplay:10.37,2013-04-23 12:40:00,
2013-04-23 07:45:00,34.7,34.7,29.96,WNW,295,3.5,3.5,100,0.00,OVC,,0.04,0.0,WeatherDisplay:10.37,2013-04-23 12:45:00,
2013-04-23 07:50:00,34.7,34.7,29.96,NW,310,3.5,3.5,100,0.00,OVC,,0.04,0.0,WeatherDisplay:10.37,2013-04-23 12:50:00,
2013-04-23 07:55:00,34.7,34.7,29.96,WSW,249,3.5,3.5,100,0.00,OVC,,0.04,0.0,WeatherDisplay:10.37,2013-04-23 12:55:00,
2013-04-23 08:00:00,34.9,34.9,29.96,WNW,285,3.5,0.0,100,0.00,OVC,,0.04,0.0,WeatherDisplay:10.37,2013-04-23 13:00:00,
2013-04-23 08:05:00,34.9,34.9,29.96,West,275,4.6,4.6,100,0.00,OVC,,0.04,0.0,WeatherDisplay:10.37,2013-04-23 13:05:00,
2013-04-23 08:10:00,34.9,34.9,29.96,NW,314,5.8,5.8,100,0.00,OVC,,0.04,0.0,WeatherDisplay:10.37,2013-04-23 13:10:00,
2013-04-23 08:15:00,35.1,35.1,29.96,NW,319,5.8,5.8,100,0.00,OVC,,0.04,0.0,WeatherDisplay:10.37,2013-04-23 13:15:00,
2013-04-23 08:20:00,35.1,35.1,29.96,WNW,297,4.6,4.6,100,0.00,OVC,,0.04,0.0,WeatherDisplay:10.37,2013-04-23 13:20:00,
2013-04-23 08:25:00,35.1,35.1,29.96,NW,309,3.5,3.5,100,0.00,OVC,,0.04,0.0,WeatherDisplay:10.37,2013-04-23 13:25:00,
2013-04-23 08:30:00,35.2,35.2,29.96,NW,308,5.8,5.8,100,0.00,OVC,,0.04,0.0,WeatherDisplay:10.37,2013-04-23 13:30:00,
2013-04-23 08:35:00,35.1,35.1,29.96,NW,315,4.6,4.6,100,0.00,OVC,,0.04,0.0,WeatherDisplay:10.37,2013-04-23 13:35:00,
2013-04-23 08:40:00,35.2,35.2,29.96,NW,319,3.5,3.5,100,0.00,OVC,,0.04,0.0,WeatherDisplay:10.37,2013-04-23 13:40:00,
2013-04-23 08:45:00,35.4,35.4,29.96,NW,315,3.5,3.5,100,0.00,OVC,,0.04,0.0,WeatherDisplay:10.37,2013-04-23 13:45:00,
2013-04-23 08:50:00,35.2,35.2,29.96,NW,312,5.8,5.8,100,0.00,OVC,,0.04,0.0,WeatherDisplay:10.37,2013-04-23 13:50:00,
2013-04-23 08:55:00,35.2,35.2,29.96,NW,315,3.5,3.5,100,0.00,OVC,,0.04,0.0,WeatherDisplay:10.37,2013-04-23 13:55:00,
2013-04-23 09:00:00,35.4,35.4,29.96,NW,326,3.5,3.5,100,0.00,OVC,,0.04,0.0,WeatherDisplay:10.37,2013-04-23 14:00:00,
2013-04-23 09:05:00,35.4,35.4,29.96,WNW,284,3.5,3.5,100,0.00,OVC,,0.04,0.0,WeatherDisplay:10.37,2013-04-23 14:05:00,
2013-04-23 09:10:00,35.4,35.4,29.96,NW,322,3.5,3.6,100,0.00,OVC,,0.04,0.0,WeatherDisplay:10.37,2013-04-23 14:10:00,
2013-04-23 09:15:00,35.2,34.5,29.96,NNW,331,3.5,4.0,97,0.00,OVC,,0.04,0.0,WeatherDisplay:10.37,2013-04-23 14:15:00,
2013-04-23 09:20:00,35.2,34.0,29.96,NNW,328,3.0,6.0,95,0.00,OVC,OVC,0.04,0.0,WeatherDisplay:10.37,2013-04-23 14:20:00,
2013-04-23 09:25:00,35.4,33.9,29.96,North,1,5.8,5.8,94,0.00,OVC,,0.04,0.0,WeatherDisplay:10.37,2013-04-23 14:25:00,
2013-04-23 09:30:00,35.4,33.1,29.99,NNW,348,3.5,3.6,91,0.00,OVC,,0.04,0.0,WeatherDisplay:10.37,2013-04-23 14:30:00,
2013-04-23 09:35:00,35.6,32.7,29.99,NNE,22,5.8,5.8,89,0.00,OVC,,0.04,0.0,WeatherDisplay:10.37,2013-04-23 14:35:00,
2013-04-23 09:40:00,35.8,32.6,29.99,NW,312,3.5,3.5,88,0.00,OVC,,0.04,0.0,WeatherDisplay:10.37,2013-04-23 14:40:00,
2013-04-23 09:45:00,35.8,32.3,29.99,NNW,338,3.5,4.0,87,0.00,OVC,,0.04,0.0,WeatherDisplay:10.37,2013-04-23 14:45:00,
2013-04-23 09:50:00,36.0,32.2,29.99,NNW,344,4.6,4.6,86,0.00,OVC,,0.04,0.0,WeatherDisplay:10.37,2013-04-23 14:50:00,
2013-04-23 09:55:00,36.0,31.9,29.99,NW,316,5.8,5.8,85,0.00,OVC,,0.04,0.0,WeatherDisplay:10.37,2013-04-23 14:55:00,
2013-04-23 10:00:00,36.1,31.5,29.99,WNW,287,5.8,5.8,83,0.00,OVC,,0.04,0.0,WeatherDisplay:10.37,2013-04-23 15:00:00,
2013-04-23 10:05:00,36.3,31.0,29.99,NW,312,5.8,5.8,81,0.00,OVC,,0.04,0.0,WeatherDisplay:10.37,2013-04-23 15:05:00,
2013-04-23 10:10:00,36.5,30.6,29.99,NW,312,5.8,5.8,79,0.00,OVC,,0.04,0.0,WeatherDisplay:10.37,2013-04-23 15:10:00,
2013-04-23 10:15:00,36.5,30.6,29.99,NW,326,5.8,5.8,79,0.00,OVC,,0.04,0.0,WeatherDisplay:10.37,2013-04-23 15:15:00,
2013-04-23 10:20:00,36.5,30.6,29.99,NNW,345,3.5,3.5,79,0.00,OVC,,0.04,0.0,WeatherDisplay:10.37,2013-04-23 15:20:00,
2013-04-23 10:25:00,36.5,30.3,29.99,NNW,337,5.8,5.8,78,0.00,OVC,,0.04,0.0,WeatherDisplay:10.37,2013-04-23 15:25:00,
2013-04-23 10:30:00,36.7,30.1,29.99,NNW,339,4.6,4.6,77,0.00,OVC,,0.04,0.0,WeatherDisplay:10.37,2013-04-23 15:30:00,
2013-04-23 10:35:00,36.9,30.6,29.99,North,1,5.8,5.8,78,0.00,OVC,,0.04,0.0,WeatherDisplay:10.37,2013-04-23 15:35:00,
2013-04-23 10:40:00,37.0,30.5,29.99,NNW,340,5.8,5.8,77,0.00,OVC,,0.04,0.0,WeatherDisplay:10.37,2013-04-23 15:40:00,
2013-04-23 10:45:00,37.0,30.5,29.99,NW,308,5.8,5.8,77,0.00,OVC,,0.04,0.0,WeatherDisplay:10.37,2013-04-23 15:45:00,
2013-04-23 10:50:00,37.2,31.0,29.99,NW,306,5.8,5.8,78,0.00,OVC,,0.04,0.0,WeatherDisplay:10.37,2013-04-23 15:50:00,
2013-04-23 10:55:00,37.4,30.8,29.99,NNW,327,4.6,4.6,77,0.00,OVC,,0.04,0.0,WeatherDisplay:10.37,2013-04-23 15:55:00,
2013-04-23 11:00:00,37.6,30.0,29.99,NNW,336,8.1,8.1,74,0.00,OVC,,0.04,0.0,WeatherDisplay:10.37,2013-04-23 16:00:00,
2013-04-23 11:05:00,37.8,30.2,29.99,NNW,342,9.6,9.6,74,0.00,OVC,,0.04,0.0,WeatherDisplay:10.37,2013-04-23 16:05:00,
2013-04-23 11:10:00,37.8,30.5,29.99,NNE,18,3.5,5.8,75,0.00,OVC,,0.04,0.0,WeatherDisplay:10.37,2013-04-23 16:10:00,
2013-04-23 11:15:00,37.8,30.5,29.99,WNW,302,5.8,5.8,75,0.00,OVC,,0.04,0.0,WeatherDisplay:10.37,2013-04-23 16:15:00,
2013-04-23 11:20:00,37.9,29.7,29.99,NW,319,5.8,5.8,72,0.00,OVC,,0.04,0.0,WeatherDisplay:10.37,2013-04-23 16:20:00,
2013-04-23 11:25:00,37.9,29.4,29.99,WNW,296,5.8,5.8,71,0.00,OVC,,0.04,0.0,WeatherDisplay:10.37,2013-04-23 16:25:00,
2013-04-23 11:30:00,38.1,29.2,29.99,North,357,11.5,11.5,70,0.00,OVC,,0.04,0.0,WeatherDisplay:10.37,2013-04-23 16:30:00,
2013-04-23 11:35:00,38.5,29.5,29.99,NW,313,5.8,5.8,70,0.00,OVC,,0.04,0.0,WeatherDisplay:10.37,2013-04-23 16:35:00,
2013-04-23 11:40:00,38.5,29.2,29.99,North,357,3.5,3.6,69,0.00,OVC,,0.04,0.0,WeatherDisplay:10.37,2013-04-23 16:40:00,
2013-04-23 11:45:00,38.5,29.2,29.99,North,353,9.2,9.2,69,0.00,OVC,,0.04,0.0,WeatherDisplay:10.37,2013-04-23 16:45:00,
2013-04-23 11:50:00,38.7,28.6,29.99,North,4,8.1,8.1,67,0.00,OVC,,0.04,0.0,WeatherDisplay:10.37,2013-04-23 16:50:00,
2013-04-23 11:55:00,39.0,29.7,29.99,North,3,10.4,10.4,69,0.00,OVC,,0.04,0.0,WeatherDisplay:10.37,2013-04-23 16:55:00,
2013-04-23 12:00:00,39.6,29.5,29.99,NNW,342,5.8,5.8,67,0.00,OVC,,0.04,0.0,WeatherDisplay:10.37,2013-04-23 17:00:00,
2013-04-23 12:05:00,39.9,30.2,29.99,WNW,302,5.8,5.8,68,0.00,OVC,,0.04,0.0,WeatherDisplay:10.37,2013-04-23 17:05:00,
2013-04-23 12:10:00,40.3,30.2,29.99,NNE,27,5.8,5.8,67,0.00,OVC,,0.04,0.0,WeatherDisplay:10.37,2013-04-23 17:10:00,
2013-04-23 12:15:00,40.5,30.0,29.99,NNW,335,5.8,5.8,66,0.00,OVC,,0.04,0.0,WeatherDisplay:10.37,2013-04-23 17:15:00,
2013-04-23 12:20:00,40.3,29.8,29.99,North,357,5.8,5.8,66,0.00,OVC,,0.04,0.0,WeatherDisplay:10.37,2013-04-23 17:20:00,
2013-04-23 12:25:00,40.3,29.8,29.99,North,357,8.1,8.1,66,0.00,OVC,,0.04,0.0,WeatherDisplay:10.37,2013-04-23 17:25:00,
2013-04-23 12:30:00,40.5,29.6,29.99,NNW,341,10.4,10.4,65,0.00,OVC,,0.04,0.0,WeatherDisplay:10.37,2013-04-23 17:30:00,
2013-04-23 12:35:00,40.6,29.8,29.99,NNW,342,8.1,8.1,65,0.00,OVC,,0.04,0.0,WeatherDisplay:10.37,2013-04-23 17:35:00,
2013-04-23 12:40:00,40.6,29.8,29.99,NW,315,6.9,6.9,65,0.00,OVC,,0.04,0.0,WeatherDisplay:10.37,2013-04-23 17:40:00,
2013-04-23 12:45:00,40.5,29.6,30.02,NNE,29,8.1,8.1,65,0.00,OVC,,0.04,0.0,WeatherDisplay:10.37,2013-04-23 17:45:00,
2013-04-23 12:50:00,40.5,29.6,30.02,NNW,339,3.5,3.6,65,0.00,OVC,,0.04,0.0,WeatherDisplay:10.37,2013-04-23 17:50:00,
2013-04-23 12:55:00,40.5,29.6,30.02,NNW,330,5.8,5.8,65,0.00,OVC,,0.04,0.0,WeatherDisplay:10.37,2013-04-23 17:55:00,
2013-04-23 13:00:00,40.1,29.6,29.99,NW,321,5.8,5.8,66,0.00,OVC,,0.04,0.0,WeatherDisplay:10.37,2013-04-23 18:00:00,
2013-04-23 13:05:00,40.1,29.6,29.99,NNE,17,5.8,5.8,66,0.00,OVC,,0.04,0.0,WeatherDisplay:10.37,2013-04-23 18:05:00,
2013-04-23 13:10:00,40.3,29.4,29.99,NNW,338,9.2,9.2,65,0.00,OVC,,0.04,0.0,WeatherDisplay:10.37,2013-04-23 18:10:00,
2013-04-23 13:15:00,40.5,29.6,29.99,NW,315,8.1,8.1,65,0.00,OVC,,0.04,0.0,WeatherDisplay:10.37,2013-04-23 18:15:00,
2013-04-23 13:20:00,40.6,29.4,29.99,NNW,344,9.2,9.2,64,0.00,OVC,,0.04,0.0,WeatherDisplay:10.37,2013-04-23 18:20:00,
2013-04-23 13:25:00,40.8,30.0,29.99,NNW,331,5.8,5.8,65,0.00,OVC,,0.04,0.0,WeatherDisplay:10.37,2013-04-23 18:25:00,
2013-04-23 13:30:00,40.6,29.8,29.96,NW,319,5.8,5.8,65,0.00,OVC,,0.04,0.0,WeatherDisplay:10.37,2013-04-23 18:30:00,
2013-04-23 13:35:00,40.5,29.6,29.96,North,350,5.8,5.8,65,0.00,OVC,,0.04,0.0,WeatherDisplay:10.37,2013-04-23 18:35:00,
2013-04-23 13:40:00,40.6,29.8,29.96,NE,35,4.6,4.6,65,0.00,OVC,,0.04,0.0,WeatherDisplay:10.37,2013-04-23 18:40:00,
2013-04-23 13:45:00,41.4,30.1,29.99,NNW,337,8.1,8.1,64,0.00,OVC,,0.04,0.0,WeatherDisplay:10.37,2013-04-23 18:45:00,
2013-04-23 13:50:00,41.5,29.9,29.99,NE,35,11.5,11.5,63,0.00,OVC,,0.04,0.0,WeatherDisplay:10.37,2013-04-23 18:50:00,
2013-04-23 13:55:00,41.2,29.9,29.99,NW,325,5.8,5.8,64,0.00,OVC,,0.04,0.0,WeatherDisplay:10.37,2013-04-23 18:55:00,
2013-04-23 14:00:00,41.0,29.7,29.99,NNW,341,5.8,5.8,64,0.00,OVC,,0.04,0.0,WeatherDisplay:10.37,2013-04-23 19:00:00,
2013-04-23 14:05:00,40.6,29.8,29.99,NNW,343,5.8,5.8,65,0.00,OVC,,0.04,0.0,WeatherDisplay:10.37,2013-04-23 19:05:00,
2013-04-23 14:10:00,40.6,29.8,29.99,NW,310,5.8,5.8,65,0.00,OVC,,0.04,0.0,WeatherDisplay:10.37,2013-04-23 19:10:00,
2013-04-23 14:15:00,40.3,29.4,29.99,WNW,300,5.8,5.8,65,0.00,OVC,,0.04,0.0,WeatherDisplay:10.37,2013-04-23 19:15:00,
2013-04-23 14:20:00,39.7,29.3,29.99,NNE,18,4.6,4.6,66,0.00,OVC,,0.04,0.0,WeatherDisplay:10.37,2013-04-23 19:20:00,
2013-04-23 14:25:00,39.7,29.3,29.99,NW,319,4.6,4.6,66,0.00,OVC,,0.04,0.0,WeatherDisplay:10.37,2013-04-23 19:25:00,
2013-04-23 14:30:00,39.9,29.1,29.99,NW,306,5.8,5.8,65,0.00,OVC,,0.04,0.0,WeatherDisplay:10.37,2013-04-23 19:30:00,
2013-04-23 14:35:00,39.7,29.3,29.99,North,2,5.8,5.8,66,0.00,OVC,,0.04,0.0,WeatherDisplay:10.37,2013-04-23 19:35:00,
2013-04-23 14:40:00,39.7,28.9,29.99,NNW,341,9.2,9.2,65,0.00,OVC,,0.04,0.0,WeatherDisplay:10.37,2013-04-23 19:40:00,
2013-04-23 14:45:00,39.7,28.9,29.99,North,2,5.8,5.8,65,0.00,OVC,,0.04,0.0,WeatherDisplay:10.37,2013-04-23 19:45:00,
2013-04-23 14:50:00,39.6,28.8,29.99,NW,324,5.8,5.8,65,0.00,OVC,,0.04,0.0,WeatherDisplay:10.37,2013-04-23 19:50:00,
2013-04-23 14:55:00,39.4,28.6,29.99,NW,311,4.6,4.6,65,0.00,OVC,,0.04,0.0,WeatherDisplay:10.37,2013-04-23 19:55:00,
2013-04-23 15:00:00,39.2,28.4,29.99,NW,316,4.6,4.6,65,0.00,OVC,,0.04,0.0,WeatherDisplay:10.37,2013-04-23 20:00:00,
2013-04-23 15:05:00,39.0,28.6,29.99,NNW,343,8.1,8.1,66,0.00,OVC,,0.04,0.0,WeatherDisplay:10.37,2013-04-23 20:05:00,
2013-04-23 15:10:00,39.0,28.6,29.99,West,281,3.5,3.6,66,0.00,OVC,,0.04,0.0,WeatherDisplay:10.37,2013-04-23 20:10:00,
2013-04-23 15:15:00,39.0,28.6,29.99,NNE,16,3.5,3.5,66,0.00,OVC,,0.04,0.0,WeatherDisplay:10.37,2013-04-23 20:15:00,
2013-04-23 15:20:00,39.0,28.6,29.99,NNW,340,5.8,5.8,66,0.00,OVC,,0.04,0.0,WeatherDisplay:10.37,2013-04-23 20:20:00,
2013-04-23 15:25:00,39.0,28.6,29.99,NNW,346,5.8,5.8,66,0.00,OVC,,0.04,0.0,WeatherDisplay:10.37,2013-04-23 20:25:00,
2013-04-23 15:30:00,39.2,28.4,29.99,North,353,8.1,8.1,65,0.00,OVC,,0.04,0.0,WeatherDisplay:10.37,2013-04-23 20:30:00,
2013-04-23 15:35:00,39.2,28.8,29.99,NNW,340,3.5,3.5,66,0.00,OVC,,0.04,0.0,WeatherDisplay:10.37,2013-04-23 20:35:00,
2013-04-23 15:40:00,39.4,29.0,29.99,NNW,341,3.5,3.6,66,0.00,OVC,,0.04,0.0,WeatherDisplay:10.37,2013-04-23 20:40:00,
2013-04-23 15:45:00,39.7,28.9,29.99,North,357,8.1,8.1,65,0.00,OVC,,0.04,0.0,WeatherDisplay:10.37,2013-04-23 20:45:00,
2013-04-23 15:50:00,39.7,28.9,29.99,NNW,333,5.8,5.8,65,0.00,OVC,,0.04,0.0,WeatherDisplay:10.37,2013-04-23 20:50:00,
2013-04-23 15:55:00,39.7,28.5,29.99,North,1,5.8,5.8,64,0.00,OVC,,0.04,0.0,WeatherDisplay:10.37,2013-04-23 20:55:00,
2013-04-23 16:00:00,39.6,28.8,29.99,NW,318,5.8,5.8,65,0.00,OVC,,0.04,0.0,WeatherDisplay:10.37,2013-04-23 21:00:00,
2013-04-23 16:05:00,39.6,28.4,29.99,NW,316,5.8,5.8,64,0.00,OVC,,0.04,0.0,WeatherDisplay:10.37,2013-04-23 21:05:00,
2013-04-23 16:10:00,39.7,28.5,29.99,North,1,5.8,5.8,64,0.00,OVC,,0.04,0.0,WeatherDisplay:10.37,2013-04-23 21:10:00,
2013-04-23 16:15:00,39.7,28.5,29.99,WNW,302,4.6,4.6,64,0.00,OVC,,0.04,0.0,WeatherDisplay:10.37,2013-04-23 21:15:00,
2013-04-23 16:20:00,39.7,28.5,29.99,NNW,339,8.1,8.1,64,0.00,OVC,,0.04,0.0,WeatherDisplay:10.37,2013-04-23 21:20:00,
2013-04-23 16:25:00,39.6,28.4,29.99,North,353,8.1,8.1,64,0.00,OVC,,0.04,0.0,WeatherDisplay:10.37,2013-04-23 21:25:00,
2013-04-23 16:30:00,39.4,28.2,29.99,NW,304,5.8,5.8,64,0.00,OVC,,0.04,0.0,WeatherDisplay:10.37,2013-04-23 21:30:00,
2013-04-23 16:34:00,39.2,28.0,29.99,NW,319,3.5,4.0,64,0.00,OVC,,0.04,0.0,WeatherDisplay:10.37,2013-04-23 21:34:00,
2013-04-23 16:39:00,39.2,28.4,29.99,NE,51,3.5,3.5,65,0.00,OVC,,0.04,0.0,WeatherDisplay:10.37,2013-04-23 21:39:00,
2013-04-23 16:44:00,39.2,28.0,29.99,North,1,5.8,5.8,64,0.00,OVC,,0.04,0.0,WeatherDisplay:10.37,2013-04-23 21:44:00,
2013-04-23 16:49:00,39.2,28.4,29.99,NE,54,5.8,5.8,65,0.00,OVC,,0.04,0.0,WeatherDisplay:10.37,2013-04-23 21:49:00,
2013-04-23 16:54:00,39.4,28.6,29.99,NNW,339,2.3,2.7,65,0.00,OVC,,0.04,0.0,WeatherDisplay:10.37,2013-04-23 21:54:00,
2013-04-23 16:59:00,39.4,28.2,30.02,NNW,327,5.8,5.8,64,0.00,OVC,,0.04,0.0,WeatherDisplay:10.37,2013-04-23 21:59:00,
2013-04-23 17:04:00,39.4,28.2,30.02,NNW,333,5.8,5.8,64,0.00,OVC,,0.04,0.0,WeatherDisplay:10.37,2013-04-23 22:04:00,
2013-04-23 17:09:00,39.4,28.2,30.02,NW,308,3.5,3.5,64,0.00,OVC,,0.04,0.0,WeatherDisplay:10.37,2013-04-23 22:09:00,
2013-04-23 17:14:00,39.4,28.2,30.02,NW,312,3.5,3.5,64,0.00,OVC,,0.04,0.0,WeatherDisplay:10.37,2013-04-23 22:14:00,
2013-04-23 17:19:00,39.2,28.0,30.02,NNW,340,5.8,5.8,64,0.00,OVC,,0.04,0.0,WeatherDisplay:10.37,2013-04-23 22:19:00,
2013-04-23 17:24:00,39.2,28.0,30.02,North,353,3.5,0.0,64,0.00,OVC,,0.04,0.0,WeatherDisplay:10.37,2013-04-23 22:24:00,
2013-04-23 17:29:00,39.2,28.0,29.99,North,1,3.5,3.5,64,0.00,OVC,,0.04,0.0,WeatherDisplay:10.37,2013-04-23 22:29:00,
2013-04-23 17:34:00,39.4,28.2,29.99,North,349,8.1,8.1,64,0.00,OVC,,0.04,0.0,WeatherDisplay:10.37,2013-04-23 22:34:00,
2013-04-23 17:39:00,39.4,28.2,29.99,North,353,5.8,5.8,64,0.00,OVC,,0.04,0.0,WeatherDisplay:10.37,2013-04-23 22:39:00,
2013-04-23 17:44:00,39.4,28.2,29.99,NW,320,4.6,4.6,64,0.00,OVC,,0.04,0.0,WeatherDisplay:10.37,2013-04-23 22:44:00,
2013-04-23 17:49:00,39.2,28.0,29.99,NW,326,3.5,3.5,64,0.00,OVC,,0.04,0.0,WeatherDisplay:10.37,2013-04-23 22:49:00,
2013-04-23 17:54:00,39.0,27.9,29.99,NW,324,3.5,3.5,64,0.00,OVC,,0.04,0.0,WeatherDisplay:10.37,2013-04-23 22:54:00,
2013-04-23 17:59:00,39.0,27.9,30.02,NW,314,3.5,3.5,64,0.00,OVC,,0.04,0.0,WeatherDisplay:10.37,2013-04-23 22:59:00,
2013-04-23 18:04:00,39.0,27.9,30.02,NNW,331,4.6,4.6,64,0.00,OVC,,0.04,0.0,WeatherDisplay:10.37,2013-04-23 23:04:00,
2013-04-23 18:09:00,38.8,28.1,30.02,NW,321,3.5,3.5,65,0.00,OVC,,0.04,0.0,WeatherDisplay:10.37,2013-04-23 23:09:00,
2013-04-23 18:14:00,38.7,27.9,30.02,NW,322,3.5,3.5,65,0.00,OVC,,0.04,0.0,WeatherDisplay:10.37,2013-04-23 23:14:00,
2013-04-23 18:19:00,38.7,27.9,30.02,NNW,332,5.8,5.8,65,0.00,OVC,,0.04,0.0,WeatherDisplay:10.37,2013-04-23 23:19:00,
2013-04-23 18:24:00,38.5,27.4,30.02,NW,306,8.1,8.1,64,0.00,OVC,,0.04,0.0,WeatherDisplay:10.37,2013-04-23 23:24:00,
2013-04-23 18:29:00,38.5,27.4,30.02,NW,317,5.8,5.8,64,0.00,OVC,,0.04,0.0,WeatherDisplay:10.37,2013-04-23 23:29:00,
2013-04-23 18:34:00,38.3,27.2,30.02,NW,304,8.1,8.1,64,0.00,OVC,,0.04,0.0,WeatherDisplay:10.37,2013-04-23 23:34:00,
2013-04-23 18:39:00,38.3,27.6,30.02,North,3,8.1,8.1,65,0.00,OVC,,0.04,0.0,WeatherDisplay:10.37,2013-04-23 23:39:00,
2013-04-23 18:44:00,38.3,27.6,30.02,NNW,343,3.5,0.0,65,0.00,OVC,,0.04,0.0,WeatherDisplay:10.37,2013-04-23 23:44:00,
2013-04-23 18:49:00,38.5,27.7,30.02,NNW,335,3.5,3.5,65,0.00,OVC,,0.04,0.0,WeatherDisplay:10.37,2013-04-23 23:49:00,
2013-04-23 18:54:00,38.3,27.6,30.02,NW,325,3.5,3.5,65,0.00,OVC,,0.04,0.0,WeatherDisplay:10.37,2013-04-23 23:54:00,
2013-04-23 18:59:00,38.1,27.4,30.02,North,353,3.5,3.5,65,0.00,OVC,,0.04,0.0,WeatherDisplay:10.37,2013-04-23 23:59:00,
2013-04-23 19:04:00,38.1,27.4,30.02,North,4,5.8,5.8,65,0.00,OVC,,0.04,0.0,WeatherDisplay:10.37,2013-04-24 00:04:00,
2013-04-23 19:09:00,37.9,27.2,30.02,North,353,5.8,5.8,65,0.00,OVC,,0.04,0.0,WeatherDisplay:10.37,2013-04-24 00:09:00,
2013-04-23 19:14:00,37.9,27.2,30.02,WNW,296,4.6,4.6,65,0.00,OVC,,0.04,0.0,WeatherDisplay:10.37,2013-04-24 00:14:00,
2013-04-23 19:19:00,37.8,27.0,30.02,NW,312,3.5,3.5,65,0.00,OVC,,0.04,0.0,WeatherDisplay:10.37,2013-04-24 00:19:00,
2013-04-23 19:24:00,37.8,27.0,30.02,NW,319,2.7,2.7,65,0.00,OVC,,0.04,0.0,WeatherDisplay:10.37,2013-04-24 00:24:00,
2013-04-23 19:29:00,37.6,27.2,30.02,NNW,348,3.5,3.5,66,0.00,OVC,,0.04,0.0,WeatherDisplay:10.37,2013-04-24 00:29:00,
2013-04-23 19:34:00,37.6,27.2,30.02,NNW,336,2.3,2.3,66,0.00,OVC,,0.04,0.0,WeatherDisplay:10.37,2013-04-24 00:34:00,
2013-04-23 19:39:00,37.6,27.2,30.02,North,2,5.8,5.8,66,0.00,OVC,,0.04,0.0,WeatherDisplay:10.37,2013-04-24 00:39:00,
2013-04-23 19:44:00,37.4,27.1,30.02,NW,312,3.5,3.5,66,0.00,OVC,,0.04,0.0,WeatherDisplay:10.37,2013-04-24 00:44:00,
2013-04-23 19:49:00,37.4,26.7,30.02,North,1,5.8,5.8,65,0.00,OVC,,0.04,0.0,WeatherDisplay:10.37,2013-04-24 00:49:00,
2013-04-23 19:54:00,37.2,26.9,30.02,North,1,5.8,5.8,66,0.00,OVC,,0.04,0.0,WeatherDisplay:10.37,2013-04-24 00:54:00,
2013-04-23 19:59:00,37.0,26.4,30.02,North,9,5.8,5.8,65,0.00,OVC,,0.04,0.0,WeatherDisplay:10.37,2013-04-24 00:59:00,
2013-04-23 20:04:00,37.0,26.4,30.02,NE,47,3.5,3.6,65,0.00,FEW,OVC,0.04,0.0,WeatherDisplay:10.37,2013-04-24 01:04:00,
2013-04-23 20:09:00,36.9,26.2,30.02,NNE,16,5.8,5.8,65,0.00,FEW,OVC,0.04,0.0,WeatherDisplay:10.37,2013-04-24 01:09:00,
2013-04-23 20:14:00,36.9,26.2,30.02,NNW,333,8.1,8.1,65,0.00,FEW,OVC,0.04,0.0,WeatherDisplay:10.37,2013-04-24 01:14:00,
2013-04-23 20:19:00,36.7,26.0,30.02,North,1,6.9,6.9,65,0.00,FEW,OVC,0.04,0.0,WeatherDisplay:10.37,2013-04-24 01:19:00,
2013-04-23 20:24:00,36.7,26.0,30.02,NNE,25,6.9,6.9,65,0.00,FEW,OVC,0.04,0.0,WeatherDisplay:10.37,2013-04-24 01:24:00,
2013-04-23 20:29:00,36.7,26.0,30.05,NNW,328,5.8,5.8,65,0.00,FEW,OVC,0.04,0.0,WeatherDisplay:10.37,2013-04-24 01:29:00,
2013-04-23 20:34:00,36.5,25.8,30.05,NNW,336,5.8,5.8,65,0.00,FEW,OVC,0.04,0.0,WeatherDisplay:10.37,2013-04-24 01:34:00,
2013-04-23 20:39:00,36.5,25.8,30.05,NNW,330,5.8,5.8,65,0.00,FEW,OVC,0.04,0.0,WeatherDisplay:10.37,2013-04-24 01:39:00,
2013-04-23 20:44:00,36.3,26.0,30.05,North,8,4.6,4.6,66,0.00,FEW,OVC,0.04,0.0,WeatherDisplay:10.37,2013-04-24 01:44:00,
2013-04-23 20:49:00,36.3,26.0,30.05,NNW,343,5.8,5.8,66,0.00,FEW,OVC,0.04,0.0,WeatherDisplay:10.37,2013-04-24 01:49:00,
2013-04-23 20:54:00,36.3,26.0,30.05,NNW,346,3.5,3.5,66,0.00,FEW,OVC,0.04,0.0,WeatherDisplay:10.37,2013-04-24 01:54:00,
2013-04-23 20:59:00,36.1,25.9,30.05,NNW,343,3.5,3.5,66,0.00,FEW,OVC,0.04,0.0,WeatherDisplay:10.37,2013-04-24 01:59:00,
2013-04-23 21:04:00,36.1,25.5,30.05,North,0,3.5,5.4,65,0.00,CLR,OVC,0.04,0.0,WeatherDisplay:10.37,2013-04-24 02:04:00,
2013-04-23 21:09:00,36.0,25.3,30.05,NNW,345,3.5,3.5,65,0.00,CLR,OVC,0.04,0.0,WeatherDisplay:10.37,2013-04-24 02:09:00,
2013-04-23 21:14:00,35.8,25.2,30.02,North,353,5.8,5.8,65,0.00,CLR,OVC,0.04,0.0,WeatherDisplay:10.37,2013-04-24 02:14:00,
2013-04-23 21:19:00,35.6,25.0,30.02,North,1,2.3,2.7,65,0.00,CLR,OVC,0.04,0.0,WeatherDisplay:10.37,2013-04-24 02:19:00,
2013-04-23 21:25:00,35.6,25.4,30.05,NNE,16,3.5,3.5,66,0.00,CLR,OVC,0.04,0.0,WeatherDisplay:10.37,2013-04-24 02:25:00,
2013-04-23 21:30:00,35.4,25.2,30.05,North,3,3.5,3.5,66,0.00,CLR,OVC,0.04,0.0,WeatherDisplay:10.37,2013-04-24 02:30:00,
2013-04-23 21:35:00,35.4,25.2,30.05,NNE,19,3.5,0.0,66,0.00,CLR,OVC,0.04,0.0,WeatherDisplay:10.37,2013-04-24 02:35:00,
2013-04-23 21:40:00,35.2,25.0,30.05,NE,36,4.6,4.6,66,0.00,CLR,OVC,0.04,0.0,WeatherDisplay:10.37,2013-04-24 02:40:00,
2013-04-23 21:45:00,35.1,24.8,30.05,North,357,5.8,5.8,66,0.00,CLR,OVC,0.04,0.0,WeatherDisplay:10.37,2013-04-24 02:45:00,
2013-04-23 21:50:00,34.9,24.7,30.05,NNW,345,4.6,4.6,66,0.00,CLR,OVC,0.04,0.0,WeatherDisplay:10.37,2013-04-24 02:50:00,
2013-04-23 21:56:00,34.7,24.5,30.05,NNE,12,3.5,3.5,66,0.00,CLR,OVC,0.04,0.0,WeatherDisplay:10.37,2013-04-24 02:56:00,
2013-04-23 22:01:00,34.5,24.3,30.05,North,357,3.5,3.5,66,0.00,CLR,OVC,0.04,0.0,WeatherDisplay:10.37,2013-04-24 03:01:00,
2013-04-23 22:06:00,34.3,24.5,30.05,North,1,3.5,3.5,67,0.00,CLR,OVC,0.04,0.0,WeatherDisplay:10.37,2013-04-24 03:06:00,
2013-04-23 22:11:00,34.3,24.5,30.05,North,357,2.3,0.0,67,0.00,CLR,OVC,0.04,0.0,WeatherDisplay:10.37,2013-04-24 03:11:00,
2013-04-23 22:16:00,34.0,24.2,30.05,NNE,31,0.0,0.0,67,0.00,CLR,OVC,0.04,0.0,WeatherDisplay:10.37,2013-04-24 03:16:00,
2013-04-23 22:21:00,34.0,24.2,30.05,NNE,31,0.0,0.0,67,0.00,CLR,OVC,0.04,0.0,WeatherDisplay:10.37,2013-04-24 03:21:00,
2013-04-23 22:26:00,33.8,24.0,30.05,NNE,31,0.0,0.0,67,0.00,CLR,OVC,0.04,0.0,WeatherDisplay:10.37,2013-04-24 03:26:00,
2013-04-23 22:32:00,33.4,24.0,30.05,NNE,31,0.0,0.0,68,0.00,CLR,OVC,0.04,0.0,WeatherDisplay:10.37,2013-04-24 03:32:00,
2013-04-23 22:37:00,33.1,23.7,30.05,NNE,31,0.0,0.0,68,0.00,CLR,OVC,0.04,0.0,WeatherDisplay:10.37,2013-04-24 03:37:00,
2013-04-23 22:43:00,32.9,23.5,30.05,NNE,31,0.0,0.0,68,0.00,CLR,OVC,0.04,0.0,WeatherDisplay:10.37,2013-04-24 03:43:00,
2013-04-23 22:48:00,32.7,23.7,30.05,NNE,31,0.0,0.0,69,0.00,CLR,OVC,0.04,0.0,WeatherDisplay:10.37,2013-04-24 03:48:00,
2013-04-23 22:53:00,32.5,23.5,30.05,NNE,31,0.0,0.0,69,0.00,CLR,OVC,0.04,0.0,WeatherDisplay:10.37,2013-04-24 03:53:00,
2013-04-23 22:59:00,32.2,23.1,30.05,NNE,31,0.0,0.0,69,0.00,CLR,OVC,0.04,0.0,WeatherDisplay:10.37,2013-04-24 03:59:00,
2013-04-23 23:01:00,32.0,23.0,30.05,NNE,31,0.0,0.0,69,0.00,CLR,OVC,0.04,0.0,WeatherDisplay:10.37,2013-04-24 04:01:00,
2013-04-23 23:06:00,31.5,22.8,30.05,NNE,31,0.0,0.0,70,0.00,CLR,OVC,0.04,0.0,WeatherDisplay:10.37,2013-04-24 04:06:00,
2013-04-23 23:11:00,30.9,22.3,30.05,NNE,31,0.0,0.0,70,0.00,CLR,OVC,0.04,0.0,WeatherDisplay:10.37,2013-04-24 04:11:00,
2013-04-23 23:16:00,30.4,21.8,30.05,NNE,31,0.0,0.0,70,0.00,CLR,OVC,0.04,0.0,WeatherDisplay:10.37,2013-04-24 04:16:00,
2013-04-23 23:21:00,29.8,21.6,30.05,NNE,31,0.0,0.0,71,0.00,CLR,OVC,0.04,0.0,WeatherDisplay:10.37,2013-04-24 04:21:00,
2013-04-23 23:26:00,29.5,21.6,30.05,NNE,31,0.0,0.0,72,0.00,CLR,OVC,0.04,0.0,WeatherDisplay:10.37,2013-04-24 04:26:00,
2013-04-23 23:31:00,29.1,21.5,30.05,NNE,31,0.0,0.0,73,0.00,CLR,OVC,0.04,0.0,WeatherDisplay:10.37,2013-04-24 04:31:00,
2013-04-23 23:36:00,28.6,21.3,30.05,NNE,31,0.0,0.0,74,0.00,CLR,OVC,0.04,0.0,WeatherDisplay:10.37,2013-04-24 04:36:00,
2013-04-23 23:41:00,28.4,21.5,30.05,NNE,31,0.0,0.0,75,0.00,CLR,OVC,0.04,0.0,WeatherDisplay:10.37,2013-04-24 04:41:00,
2013-04-23 23:46:00,28.0,21.4,30.05,NNE,31,0.0,0.0,76,0.00,CLR,OVC,0.04,0.0,WeatherDisplay:10.37,2013-04-24 04:46:00,
2013-04-23 23:51:00,27.9,21.3,30.05,NNE,31,0.0,0.0,76,0.00,CLR,OVC,0.04,0.0,WeatherDisplay:10.37,2013-04-24 04:51:00,
2013-04-23 23:56:00,27.7,21.4,30.05,NNE,31,0.0,0.0,77,0.00,CLR,OVC,0.04,0.0,WeatherDisplay:10.37,2013-04-24 04:56:00,